Time;durP1;ratioP1;P1;durP2;ratioP2;P2;SDS_P1;SDS_P2;PMS_P1;PMS_P2;Temp;Humidity;BMP_temperature;BMP_pressure;BME280_temperature;BME280_humidity;BME280_pressure;Samples;Min_cycle;Max_cycle;Signal;HPM_P1;HPM_P2
2023/10/11 00:02:51;;;;;;;11.15;6.68;;;24.70;45.50;;;;;;5070425;28;20547;-73
2023/10/11 00:05:18;;;;;;;10.90;6.65;;;24.80;45.40;;;;;;5070301;28;20132;-74
2023/10/11 00:07:44;;;;;;;9.57;6.78;;;24.80;45.40;;;;;;5070275;28;20033;-73
2023/10/11 00:10:11;;;;;;;12.95;6.75;;;24.80;45.40;;;;;;5070229;28;20526;-73
2023/10/11 00:12:41;;;;;;;11.20;7.00;;;24.80;45.50;;;;;;5069950;28;20086;-73
2023/10/11 00:15:10;;;;;;;13.27;6.40;;;24.80;45.50;;;;;;5069996;28;20400;-73
2023/10/11 00:17:36;;;;;;;11.15;6.55;;;24.80;45.50;;;;;;5069933;28;20047;-73
2023/10/11 00:20:27;;;;;;;11.45;6.68;;;24.80;45.50;;;;;;5070004;28;20036;-71
2023/10/11 00:22:54;;;;;;;7.75;6.00;;;24.80;45.40;;;;;;5052135;28;20156;-71
2023/10/11 00:25:24;;;;;;;10.23;6.07;;;24.80;45.40;;;;;;5018094;28;20052;-72
2023/10/11 00:27:58;;;;;;;10.02;6.43;;;24.80;45.40;;;;;;5052199;28;20041;-71
2023/10/11 00:30:26;;;;;;;9.00;6.55;;;24.80;45.30;;;;;;5050778;28;20112;-72
2023/10/11 00:32:53;;;;;;;10.02;6.07;;;24.80;45.40;;;;;;5050670;28;20044;-70
2023/10/11 00:35:20;;;;;;;10.10;6.43;;;24.70;45.40;;;;;;5052141;28;20041;-71
2023/10/11 00:37:49;;;;;;;10.57;6.38;;;24.70;45.40;;;;;;5042281;28;20024;-71
2023/10/11 00:40:25;;;;;;;9.38;6.72;;;24.60;45.30;;;;;;5070838;28;20111;-72
2023/10/11 00:42:57;;;;;;;10.10;6.43;;;24.70;45.40;;;;;;5070502;28;20082;-73
2023/10/11 00:45:30;;;;;;;7.28;5.63;;;24.70;45.40;;;;;;5071799;28;20037;-73
2023/10/11 00:47:56;;;;;;;;;;;24.60;45.30;;;;;;5071162;28;20020;-72
2023/10/11 00:50:23;;;;;;;12.45;6.30;;;24.60;45.30;;;;;;5053813;28;19916;-71
2023/10/11 00:52:51;;;;;;;9.77;6.20;;;24.60;45.30;;;;;;5053907;28;20036;-72
2023/10/11 00:55:23;;;;;;;12.63;7.05;;;24.70;45.30;;;;;;5070269;28;20554;-70
2023/10/11 00:57:53;;;;;;;10.98;7.03;;;24.50;45.30;;;;;;5071623;28;20037;-72
2023/10/11 01:00:23;;;;;;;10.27;6.82;;;24.50;45.20;;;;;;5071706;28;20060;-73
2023/10/11 01:02:54;;;;;;;11.75;6.50;;;24.50;45.10;;;;;;5071572;28;20039;-72
2023/10/11 01:05:22;;;;;;;10.68;6.97;;;24.60;45.10;;;;;;5071051;28;20036;-73
2023/10/11 01:07:50;;;;;;;8.48;5.60;;;24.50;45.10;;;;;;5070097;28;20670;-73
2023/10/11 01:10:17;;;;;;;12.70;6.15;;;24.60;45.00;;;;;;5071517;28;20032;-72
2023/10/11 01:12:43;;;;;;;10.90;6.30;;;24.70;45.00;;;;;;5070054;28;20391;-72
2023/10/11 01:15:11;;;;;;;8.57;6.05;;;24.50;44.90;;;;;;5071093;28;20123;-73
2023/10/11 01:17:38;;;;;;;11.57;5.70;;;24.60;44.90;;;;;;5071383;28;20071;-72
2023/10/11 01:20:15;;;;;;;11.15;6.45;;;24.50;44.80;;;;;;5071103;28;20127;-72
2023/10/11 01:22:41;;;;;;;14.18;8.38;;;24.50;44.80;;;;;;5069819;28;20048;-72
2023/10/11 01:25:12;;;;;;;18.27;11.77;;;24.70;44.80;;;;;;5071552;28;20048;-72
2023/10/11 01:27:39;;;;;;;18.20;10.70;;;24.60;44.70;;;;;;5028594;28;20041;-73
2023/10/11 01:30:07;;;;;;;13.45;9.00;;;24.60;44.70;;;;;;5012243;28;20491;-72
2023/10/11 01:32:41;;;;;;;12.43;7.90;;;24.50;44.70;;;;;;5028866;28;20420;-72
2023/10/11 01:35:19;;;;;;;14.32;8.77;;;24.60;44.70;;;;;;4995424;28;20052;-73
2023/10/11 01:37:48;;;;;;;15.60;8.18;;;24.60;44.70;;;;;;5028779;28;20042;-73
2023/10/11 01:40:20;;;;;;;11.40;8.35;;;24.50;44.70;;;;;;4995475;28;20088;-72
2023/10/11 01:42:49;;;;;;;15.98;6.93;;;24.50;44.70;;;;;;5028812;28;20827;-73
2023/10/11 01:45:17;;;;;;;12.43;7.00;;;24.50;44.70;;;;;;4995438;28;20045;-72
2023/10/11 01:47:46;;;;;;;10.18;6.78;;;24.50;44.70;;;;;;5008834;28;20099;-72
2023/10/11 01:50:16;;;;;;;8.82;6.05;;;24.40;44.60;;;;;;5012073;28;20820;-72
2023/10/11 01:52:43;;;;;;;13.32;6.70;;;24.50;44.80;;;;;;5028641;28;20054;-72
2023/10/11 01:55:15;;;;;;;8.82;6.13;;;24.40;44.70;;;;;;5011931;28;20037;-71
2023/10/11 01:57:45;;;;;;;11.90;6.60;;;24.40;44.70;;;;;;5032718;28;20041;-71
2023/10/11 02:00:16;;;;;;;12.77;6.28;;;24.30;44.70;;;;;;5035053;28;20323;-72
2023/10/11 02:02:56;;;;;;;8.98;5.55;;;24.40;44.60;;;;;;5047965;28;20053;-72
2023/10/11 02:05:22;;;;;;;10.18;5.78;;;24.40;44.60;;;;;;5029399;28;20148;-70
2023/10/11 02:07:49;;;;;;;10.55;6.28;;;24.40;44.50;;;;;;5030972;28;20041;-70
2023/10/11 02:10:19;;;;;;;9.00;6.05;;;24.50;44.60;;;;;;5030691;28;20107;-72
2023/10/11 02:12:46;;;;;;;13.18;6.15;;;24.40;44.40;;;;;;5029980;28;20044;-73
2023/10/11 02:15:21;;;;;;;13.88;6.78;;;24.40;44.40;;;;;;5030017;28;20037;-73
2023/10/11 02:17:53;;;;;;;10.20;6.28;;;24.50;44.40;;;;;;5032633;28;20065;-73
2023/10/11 02:20:22;;;;;;;11.55;6.18;;;24.40;44.30;;;;;;5033704;28;20128;-72
2023/10/11 02:22:55;;;;;;;9.48;6.07;;;24.50;44.30;;;;;;5049840;28;20111;-73
2023/10/11 02:25:24;;;;;;;9.45;5.78;;;24.50;44.30;;;;;;5033378;28;20476;-72
2023/10/11 02:27:52;;;;;;;8.93;5.45;;;24.50;44.30;;;;;;5034635;28;20099;-71
2023/10/11 02:30:22;;;;;;;9.73;5.40;;;24.60;44.30;;;;;;5049919;28;20037;-72
2023/10/11 02:32:58;;;;;;;11.15;6.53;;;24.50;44.30;;;;;;5016971;28;20041;-71
2023/10/11 02:35:29;;;;;;;9.30;5.80;;;24.40;44.20;;;;;;5033080;28;20055;-72
2023/10/11 02:37:59;;;;;;;12.68;6.15;;;24.30;44.20;;;;;;5033075;28;20103;-72
2023/10/11 02:40:25;;;;;;;11.65;6.65;;;24.40;44.20;;;;;;5033107;28;20107;-72
2023/10/11 02:42:56;;;;;;;8.20;6.10;;;24.40;44.20;;;;;;5033071;28;20112;-72
2023/10/11 02:45:23;;;;;;;12.68;6.30;;;24.40;44.30;;;;;;5075817;28;20036;-72
2023/10/11 02:47:50;;;;;;;11.45;6.35;;;24.40;44.30;;;;;;5055941;28;20099;-74
2023/10/11 02:50:22;;;;;;;10.30;7.07;;;24.30;44.30;;;;;;5074018;28;20036;-72
2023/10/11 02:52:58;;;;;;;11.23;6.78;;;24.30;44.30;;;;;;5072644;28;20421;-73
2023/10/11 02:55:25;;;;;;;11.60;7.05;;;24.20;44.30;;;;;;5073857;28;20107;-73
2023/10/11 02:58:06;;;;;;;8.40;6.82;;;24.30;44.40;;;;;;5074085;28;20047;-72
2023/10/11 03:00:34;;;;;;;10.35;6.68;;;24.20;44.30;;;;;;5072858;28;20097;-72
2023/10/11 03:03:00;;;;;;;8.93;6.05;;;24.20;44.30;;;;;;5072354;28;20396;-70
2023/10/11 03:05:27;;;;;;;11.93;5.65;;;24.30;44.30;;;;;;5072625;28;20040;-71
2023/10/11 03:08:19;;;;;;;12.27;5.10;;;24.30;44.20;;;;;;5072450;28;20029;-73
2023/10/11 03:10:45;;;;;;;8.18;5.82;;;24.40;44.20;;;;;;5073363;28;20048;-71
2023/10/11 03:13:19;;;;;;;7.30;5.05;;;24.40;44.10;;;;;;5091012;28;20395;-71
2023/10/11 03:15:47;;;;;;;9.00;5.38;;;24.30;44.10;;;;;;5091788;28;20078;-72
2023/10/11 03:18:13;;;;;;;7.70;5.25;;;24.30;44.10;;;;;;5091405;28;20052;-73
2023/10/11 03:20:40;;;;;;;9.68;5.50;;;24.40;44.10;;;;;;5091620;28;20032;-73
2023/10/11 03:23:10;;;;;;;11.75;4.93;;;24.30;44.10;;;;;;5091190;28;20040;-74
2023/10/11 03:25:49;;;;;;;10.25;5.82;;;24.30;44.00;;;;;;5091455;28;20082;-73
2023/10/11 03:28:15;;;;;;;16.83;8.05;;;24.30;44.00;;;;;;5091520;28;20122;-71
2023/10/11 03:30:42;;;;;;;16.08;7.25;;;24.30;44.00;;;;;;5090598;28;20051;-72
2023/10/11 03:33:09;;;;;;;8.57;6.38;;;24.30;44.00;;;;;;5091567;28;20052;-73
2023/10/11 03:35:38;;;;;;;7.22;4.32;;;24.40;44.00;;;;;;5091386;28;20036;-73
2023/10/11 03:38:16;;;;;;;4.35;2.97;;;24.30;44.00;;;;;;5091135;28;20110;-72
2023/10/11 03:40:55;;;;;;;5.25;2.72;;;24.40;44.00;;;;;;5090935;28;20459;-71
2023/10/11 03:43:23;;;;;;;3.22;2.50;;;24.30;44.20;;;;;;5067311;28;20059;-74
2023/10/11 03:45:51;;;;;;;5.32;2.85;;;24.30;44.30;;;;;;5054813;28;20511;-75
2023/10/11 03:48:18;;;;;;;4.65;2.83;;;24.30;44.20;;;;;;5053201;28;20546;-75
2023/10/11 03:50:47;;;;;;;4.38;2.67;;;24.30;44.00;;;;;;5054765;28;20053;-75
2023/10/11 03:53:15;;;;;;;4.95;2.97;;;24.20;43.60;;;;;;5053191;28;20388;-75
2023/10/11 03:55:47;;;;;;;13.48;6.88;;;24.30;43.50;;;;;;5049791;28;20035;-76
2023/10/11 03:58:33;;;;;;;10.35;6.43;;;24.30;43.30;;;;;;5052713;28;20033;-72
2023/10/11 04:03:44;;;;;;;7.38;4.55;;;24.20;43.00;;;;;;5052753;28;20155;-72
2023/10/11 04:06:19;;;;;;;6.47;4.72;;;24.30;45.40;;;;;;5052617;28;20083;-71
2023/10/11 04:08:57;;;;;;;8.38;4.55;;;24.40;42.90;;;;;;5052648;28;20036;-71
2023/10/11 04:11:37;;;;;;;6.03;3.30;;;24.50;41.70;;;;;;5053310;28;20060;-72
2023/10/11 04:14:17;;;;;;;5.90;3.92;;;24.50;44.90;;;;;;5052814;28;20025;-71
2023/10/11 04:16:44;;;;;;;8.80;6.43;;;24.50;44.70;;;;;;5052674;28;20424;-72
2023/10/11 04:19:10;;;;;;;7.68;6.38;;;24.50;41.50;;;;;;5051071;28;20045;-72
2023/10/11 04:21:53;;;;;;;7.93;7.10;;;24.50;46.00;;;;;;5052121;28;20104;-71
2023/10/11 04:24:20;;;;;;;14.25;12.85;;;24.70;46.00;;;;;;5069918;28;20393;-72
2023/10/11 04:27:17;;;;;;;15.70;13.52;;;24.80;46.90;;;;;;5053001;28;20055;-72
2023/10/11 04:29:41;;;;;;;19.35;14.07;;;24.80;47.30;;;;;;5069403;28;20044;-74
2023/10/11 04:32:13;;;;;;;14.38;11.95;;;24.90;51.20;;;;;;5069882;28;20036;-76
2023/10/11 04:34:48;;;;;;;12.40;10.95;;;25.00;50.60;;;;;;5069731;28;20506;-77
2023/10/11 04:37:27;;;;;;;13.73;10.40;;;25.00;48.70;;;;;;5069750;28;20130;-75
2023/10/11 04:39:57;;;;;;;15.27;8.30;;;25.00;50.50;;;;;;5069345;28;20094;-74
2023/10/11 04:42:29;;;;;;;11.05;7.20;;;25.00;48.00;;;;;;5068850;28;20031;-72
2023/10/11 04:44:56;;;;;;;9.77;6.93;;;25.00;47.50;;;;;;5069519;28;20110;-73
2023/10/11 04:47:27;;;;;;;12.98;7.13;;;25.00;47.50;;;;;;5069388;28;20088;-76
2023/10/11 04:49:54;;;;;;;10.50;6.85;;;25.00;47.70;;;;;;5052497;28;20082;-73
2023/10/11 04:52:23;;;;;;;16.67;8.18;;;24.90;47.50;;;;;;5071260;28;20024;-75
2023/10/11 04:54:55;;;;;;;14.70;7.78;;;25.00;48.50;;;;;;5063751;28;20051;-77
2023/10/11 04:57:57;;;;;;;12.88;9.00;;;24.80;49.20;;;;;;5051690;28;20033;-73
2023/10/11 05:00:30;;;;;;;13.40;8.48;;;24.90;48.80;;;;;;5051192;28;20555;-75
2023/10/11 05:03:02;;;;;;;16.92;7.00;;;24.90;48.00;;;;;;5051191;28;20069;-74
2023/10/11 05:05:28;;;;;;;10.15;7.38;;;24.70;50.30;;;;;;5051447;28;20075;-76
2023/10/11 05:08:05;;;;;;;11.02;7.60;;;24.70;48.40;;;;;;5051436;28;20406;-76
2023/10/11 05:10:43;;;;;;;14.65;8.20;;;24.70;48.00;;;;;;5044981;28;20033;-75
2023/10/11 05:13:13;;;;;;;12.65;7.82;;;24.80;47.80;;;;;;5031599;28;20045;-74
2023/10/11 05:15:43;;;;;;;13.27;9.43;;;24.60;47.50;;;;;;5034146;28;20099;-76
2023/10/11 05:18:09;;;;;;;18.23;7.97;;;24.70;47.50;;;;;;5050178;28;20132;-75
2023/10/11 05:23:11;;;;;;;13.50;7.75;;;24.70;48.10;;;;;;5040372;28;20497;-74
2023/10/11 05:25:45;;;;;;;13.07;7.78;;;24.70;48.20;;;;;;5029672;28;20037;-73
2023/10/11 05:31:06;;;;;;;12.50;8.25;;;24.60;48.10;;;;;;5032575;28;20473;-74
2023/10/11 05:33:45;;;;;;;15.23;7.55;;;24.60;48.10;;;;;;5050237;28;20047;-72
2023/10/11 05:36:17;;;;;;;13.55;8.35;;;24.60;48.20;;;;;;5033888;28;20086;-73
2023/10/11 05:52:28;;;;;;;17.92;8.93;;;24.60;48.10;;;;;;5051006;28;20055;-72
2023/10/11 05:54:55;;;;;;;16.63;9.40;;;24.70;48.10;;;;;;5036000;28;20029;-73
2023/10/11 05:57:24;;;;;;;14.20;9.02;;;24.60;50.30;;;;;;5033952;28;20045;-74
2023/10/11 05:59:50;;;;;;;12.73;8.25;;;25.00;53.00;;;;;;5034206;28;20072;-76
2023/10/11 06:02:19;;;;;;;19.52;8.18;;;25.60;54.40;;;;;;5034515;28;20046;-76
2023/10/11 06:04:46;;;;;;;12.43;8.05;;;25.50;53.60;;;;;;5035496;28;20051;-74
2023/10/11 06:07:13;;;;;;;15.98;8.65;;;25.30;49.80;;;;;;5035376;28;20068;-72
2023/10/11 06:09:43;;;;;;;13.00;7.82;;;25.30;49.60;;;;;;5035246;28;20033;-71
2023/10/11 06:12:33;;;;;;;18.17;7.65;;;25.10;49.80;;;;;;5035155;28;20499;-72
2023/10/11 06:14:57;;;;;;;12.07;7.35;;;25.00;50.20;;;;;;5035034;28;20090;-73
2023/10/11 06:17:41;;;;;;;11.52;7.72;;;25.00;50.50;;;;;;5032814;28;20050;-72
2023/10/11 06:20:27;;;;;;;12.90;7.30;;;25.00;50.60;;;;;;5034930;28;20037;-73
2023/10/11 06:22:54;;;;;;;23.38;6.75;;;25.00;51.00;;;;;;5044122;28;20121;-74
2023/10/11 06:25:49;;;;;;;7.97;3.80;;;24.90;50.70;;;;;;5054785;28;20073;-76
2023/10/11 06:28:13;;;;;;;11.23;4.18;;;25.00;52.00;;;;;;5054861;28;20120;-76
2023/10/11 06:30:46;;;;;;;10.73;4.25;;;25.40;50.60;;;;;;5054522;28;20029;-76
2023/10/11 06:33:13;;;;;;;7.60;4.82;;;25.60;49.30;;;;;;5054730;28;20060;-75
2023/10/11 06:35:43;;;;;;;9.00;5.85;;;25.80;51.00;;;;;;5054880;28;20037;-75
2023/10/11 06:38:11;;;;;;;8.82;5.85;;;26.20;48.20;;;;;;5053466;28;20032;-75
2023/10/11 06:40:47;;;;;;;10.25;6.00;;;26.00;47.20;;;;;;5054745;28;20104;-76
2023/10/11 06:43:13;;;;;;;7.50;4.20;;;25.90;47.00;;;;;;5071754;28;20051;-75
2023/10/11 06:45:41;;;;;;;9.07;4.60;;;25.90;47.80;;;;;;5072260;28;20084;-75
2023/10/11 06:48:08;;;;;;;6.72;3.70;;;25.80;48.30;;;;;;5072126;28;20078;-76
2023/10/11 06:50:38;;;;;;;8.85;4.70;;;25.80;47.90;;;;;;5055442;28;20033;-75
2023/10/11 06:53:09;;;;;;;7.00;4.50;;;25.90;48.70;;;;;;5075344;28;20771;-77
2023/10/11 06:55:39;;;;;;;9.63;4.80;;;26.00;50.70;;;;;;5091909;28;20042;-76
2023/10/11 06:58:15;;;;;;;6.53;4.90;;;26.00;51.70;;;;;;5092212;28;20040;-75
2023/10/11 07:00:48;;;;;;;9.00;5.20;;;26.10;51.00;;;;;;5075021;28;20067;-73
2023/10/11 07:06:10;;;;;;;9.70;5.13;;;26.40;50.00;;;;;;5091435;28;20036;-75
2023/10/11 07:08:48;;;;;;;6.68;4.50;;;26.50;53.50;;;;;;5091968;28;20056;-73
2023/10/11 07:11:40;;;;;;;11.05;5.35;;;26.80;53.60;;;;;;5091843;28;20440;-76
2023/10/11 07:14:14;;;;;;;13.05;5.88;;;26.80;50.10;;;;;;5083462;28;20503;-75
2023/10/11 07:16:44;;;;;;;16.85;5.78;;;27.00;51.80;;;;;;5072398;28;20040;-74
2023/10/11 07:19:11;;;;;;;16.83;7.60;;;27.20;51.70;;;;;;5072637;28;20036;-75
2023/10/11 07:27:09;;;;;;;11.40;6.70;;;27.70;52.70;;;;;;5031533;28;20030;-74
2023/10/11 07:29:42;;;;;;;10.65;6.20;;;28.00;58.70;;;;;;5031368;28;20092;-74
2023/10/11 07:32:12;;;;;;;10.75;5.32;;;28.10;57.00;;;;;;5031138;28;20050;-75
2023/10/11 07:34:40;;;;;;;14.85;5.80;;;28.30;52.00;;;;;;5014713;28;20094;-74
2023/10/11 07:37:06;;;;;;;17.52;7.15;;;28.30;52.00;;;;;;5031022;28;20037;-74
2023/10/11 07:39:37;;;;;;;11.55;6.20;;;28.30;56.00;;;;;;5031037;28;20037;-75
2023/10/11 07:42:09;;;;;;;16.15;7.00;;;28.70;53.60;;;;;;5031124;28;20044;-75
2023/10/11 07:44:37;;;;;;;24.25;7.45;;;28.90;53.50;;;;;;5030788;28;20045;-75
2023/10/11 07:47:15;;;;;;;15.75;7.35;;;28.90;51.70;;;;;;5011027;28;20050;-75
2023/10/11 07:49:45;;;;;;;24.27;8.90;;;28.90;50.10;;;;;;5010996;28;20053;-76
2023/10/11 07:52:19;;;;;;;12.30;6.78;;;28.80;52.80;;;;;;5010621;28;20060;-76
2023/10/11 07:54:45;;;;;;;15.80;7.07;;;28.70;49.80;;;;;;5025575;28;20102;-75
2023/10/11 07:57:15;;;;;;;18.20;7.88;;;28.70;48.90;;;;;;5034088;28;20049;-76
2023/10/11 07:59:42;;;;;;;21.27;8.45;;;28.70;50.80;;;;;;5034024;28;20033;-76
2023/10/11 08:02:25;;;;;;;22.92;8.60;;;28.80;51.70;;;;;;5050503;28;20523;-77
2023/10/11 08:04:57;;;;;;;20.70;8.73;;;28.70;51.90;;;;;;5030855;28;20051;-74
2023/10/11 08:07:23;;;;;;;13.77;6.68;;;28.70;59.00;;;;;;5030511;28;20386;-74
2023/10/11 08:09:53;;;;;;;8.93;6.72;;;28.80;52.30;;;;;;5030741;28;20045;-76
2023/10/11 08:12:23;;;;;;;12.10;6.57;;;28.70;50.00;;;;;;5031023;28;20053;-75
2023/10/11 08:14:53;;;;;;;18.73;6.85;;;28.80;48.40;;;;;;5030502;28;20094;-75
2023/10/11 08:17:21;;;;;;;16.00;6.85;;;28.70;50.90;;;;;;5031058;28;20053;-75
2023/10/11 08:19:53;;;;;;;16.02;5.55;;;28.70;41.70;;;;;;5030668;28;20049;-75
2023/10/11 08:22:21;;;;;;;14.07;5.20;;;28.60;44.20;;;;;;5013131;28;20537;-75
2023/10/11 08:24:52;;;;;;;34.65;7.82;;;28.50;42.50;;;;;;5029881;28;20856;-74
2023/10/11 08:27:29;;;;;;;13.30;5.35;;;28.50;44.70;;;;;;5013406;28;20568;-74
2023/10/11 08:30:18;;;;;;;9.18;4.18;;;28.70;44.00;;;;;;5030096;28;20037;-75
2023/10/11 08:32:42;;;;;;;9.63;4.75;;;28.50;42.30;;;;;;5029744;28;20339;-76
2023/10/11 08:35:16;;;;;;;9.50;4.90;;;28.40;40.60;;;;;;5013305;28;20109;-75
2023/10/11 08:37:44;;;;;;;8.20;4.82;;;28.50;39.30;;;;;;5029783;28;20087;-76
2023/10/11 08:40:21;;;;;;;7.82;3.95;;;28.30;39.00;;;;;;5029599;28;20029;-74
2023/10/11 08:42:52;;;;;;;3.85;2.70;;;28.40;41.10;;;;;;5031410;28;20050;-73
2023/10/11 08:45:28;;;;;;;3.55;2.90;;;28.30;39.50;;;;;;5032337;28;20592;-76
2023/10/11 08:47:54;;;;;;;6.13;2.85;;;28.30;39.70;;;;;;5031955;28;20033;-76
2023/10/11 08:50:21;;;;;;;4.40;3.47;;;28.30;39.30;;;;;;5047347;28;20110;-76
2023/10/11 08:52:47;;;;;;;5.70;3.63;;;28.40;41.10;;;;;;5032373;28;20068;-75
2023/10/11 08:55:19;;;;;;;6.30;4.07;;;28.40;42.70;;;;;;5031942;28;20464;-76
2023/10/11 08:57:47;;;;;;;9.82;5.10;;;28.50;39.10;;;;;;5040099;28;20029;-74
2023/10/11 09:03:17;;;;;;;7.13;3.95;;;28.30;36.70;;;;;;5036471;28;20044;-76
2023/10/11 09:05:43;;;;;;;4.70;3.38;;;28.20;37.50;;;;;;5032534;28;20048;-75
2023/10/11 09:08:35;;;;;;;7.55;4.35;;;28.00;37.70;;;;;;5049353;28;20090;-75
2023/10/11 09:11:12;;;;;;;8.05;4.40;;;28.10;37.70;;;;;;5049211;28;20060;-75
2023/10/11 09:13:39;;;;;;;5.68;3.38;;;27.90;37.30;;;;;;5048828;28;20036;-73
2023/10/11 09:16:12;;;;;;;4.93;3.25;;;27.80;39.90;;;;;;5049111;28;20041;-73
2023/10/11 09:18:41;;;;;;;6.18;3.30;;;27.70;40.70;;;;;;5048876;28;20237;-73
2023/10/11 09:21:17;;;;;;;6.32;3.25;;;27.60;41.20;;;;;;5032405;28;20556;-75
2023/10/11 09:23:48;;;;;;;7.13;2.97;;;27.50;41.50;;;;;;5032022;28;20065;-77
2023/10/11 09:26:32;;;;;;;5.05;3.28;;;27.50;42.00;;;;;;5028818;28;20140;-71
2023/10/11 09:29:02;;;;;;;6.38;3.03;;;27.40;41.70;;;;;;5028698;28;20099;-73
2023/10/11 09:31:32;;;;;;;5.75;3.20;;;27.40;42.50;;;;;;5012398;28;20417;-74
2023/10/11 09:34:07;;;;;;;8.60;3.25;;;27.20;42.40;;;;;;5028858;28;20033;-74
2023/10/11 09:36:34;;;;;;;6.88;3.20;;;27.20;43.20;;;;;;5012824;28;20099;-76
2023/10/11 09:39:03;;;;;;;8.50;2.85;;;27.10;43.90;;;;;;5011497;28;20049;-74
2023/10/11 09:41:40;;;;;;;6.90;3.13;;;27.10;45.50;;;;;;5029124;28;20095;-69
2023/10/11 09:44:10;;;;;;;4.95;3.35;;;27.00;45.80;;;;;;5025090;28;20164;-70
2023/10/11 09:46:37;;;;;;;5.53;3.47;;;26.90;44.90;;;;;;5028709;28;20674;-69
2023/10/11 09:49:12;;;;;;;4.25;3.28;;;26.80;44.80;;;;;;5028822;28;20561;-70
2023/10/11 09:51:42;;;;;;;6.25;3.58;;;26.70;44.70;;;;;;5028805;28;20068;-70
2023/10/11 09:54:13;;;;;;;3.95;2.70;;;26.70;44.70;;;;;;5045394;28;20049;-70
2023/10/11 09:56:54;;;;;;;10.32;3.08;;;26.60;44.70;;;;;;5028595;28;20041;-70
2023/10/11 09:59:59;;;;;;;4.63;3.45;;;26.80;44.60;;;;;;5045342;28;20050;-70
2023/10/11 10:02:25;;;;;;;5.88;3.05;;;26.60;44.60;;;;;;4977993;28;20054;-70
2023/10/11 10:04:51;;;;;;;7.78;3.83;;;26.60;44.80;;;;;;4991501;28;20054;-71
2023/10/11 10:07:21;;;;;;;7.03;3.13;;;26.40;45.30;;;;;;5008843;28;20049;-72
2023/10/11 10:09:52;;;;;;;6.70;3.63;;;26.40;44.60;;;;;;5024992;28;20037;-70
2023/10/11 10:12:20;;;;;;;6.03;3.20;;;26.40;45.40;;;;;;5015647;28;20053;-72
2023/10/11 10:15:00;;;;;;;6.57;2.97;;;26.40;45.20;;;;;;5031006;28;20488;-72
2023/10/11 10:17:28;;;;;;;7.38;3.50;;;26.30;45.10;;;;;;5047685;28;20386;-70
2023/10/11 10:20:00;;;;;;;6.68;2.80;;;26.30;45.20;;;;;;5031619;28;20040;-72
2023/10/11 10:22:32;;;;;;;7.13;3.20;;;26.30;45.20;;;;;;5011889;28;20058;-70
2023/10/11 10:25:20;;;;;;;3.63;2.50;;;26.30;45.60;;;;;;5011792;28;20052;-69
2023/10/11 10:27:47;;;;;;;4.65;2.97;;;26.30;45.60;;;;;;5028264;28;20042;-70
2023/10/11 10:30:21;;;;;;;4.18;2.53;;;26.20;45.70;;;;;;4953172;28;20050;-68
2023/10/11 10:33:23;;;;;;;7.03;2.65;;;26.20;46.00;;;;;;4969625;28;20043;-70
2023/10/11 10:35:49;;;;;;;4.68;2.60;;;26.30;46.20;;;;;;4969471;28;20047;-69
2023/10/11 10:38:21;;;;;;;4.97;3.03;;;26.20;46.20;;;;;;4982083;28;20046;-69
2023/10/11 10:41:21;;;;;;;4.45;2.35;;;26.20;46.50;;;;;;4976123;28;20046;-70
2023/10/11 10:44:04;;;;;;;3.05;2.55;;;26.20;46.50;;;;;;4992789;28;20402;-71
2023/10/11 10:46:34;;;;;;;4.97;2.78;;;26.20;46.40;;;;;;4992586;28;20042;-71
2023/10/11 10:49:03;;;;;;;3.85;2.45;;;26.20;46.30;;;;;;4992597;28;20061;-70
2023/10/11 10:51:35;;;;;;;6.03;2.63;;;26.30;46.30;;;;;;4992386;28;20112;-70
2023/10/11 10:54:25;;;;;;;4.82;2.72;;;26.00;46.30;;;;;;4992802;28;20035;-69
2023/10/11 10:56:58;;;;;;;5.57;3.25;;;26.10;46.40;;;;;;4975931;28;20149;-69
2023/10/11 10:59:26;;;;;;;2.13;1.92;;;26.20;47.60;;;;;;4992290;28;20078;-68
2023/10/11 11:01:55;;;;;;;4.50;2.20;;;26.10;47.80;;;;;;5024655;28;20073;-68
2023/10/11 11:04:28;;;;;;;6.15;2.95;;;26.00;47.80;;;;;;5034127;28;20108;-69
2023/10/11 11:06:55;;;;;;;5.40;3.03;;;26.00;47.70;;;;;;5067150;28;20029;-69
2023/10/11 11:09:29;;;;;;;4.60;2.30;;;26.10;47.60;;;;;;5053709;28;20140;-70
2023/10/11 11:12:17;;;;;;;3.35;3.08;;;26.10;47.50;;;;;;5053584;28;20530;-70
2023/10/11 11:14:54;;;;;;;3.13;2.20;;;26.00;47.60;;;;;;5053825;28;20083;-69
2023/10/11 11:17:23;;;;;;;7.22;2.40;;;26.10;47.50;;;;;;5069250;28;20037;-68
2023/10/11 11:20:15;;;;;;;3.70;2.60;;;26.00;47.50;;;;;;5070903;28;20048;-68
2023/10/11 11:22:47;;;;;;;6.20;2.70;;;26.00;47.50;;;;;;5070582;28;20499;-69
2023/10/11 11:28:15;;;;;;;4.90;2.10;;;26.00;51.10;;;;;;5054202;28;20052;-70
2023/10/11 11:31:13;;;;;;;2.63;2.42;;;26.10;48.70;;;;;;5020714;28;20054;-70
2023/10/11 11:33:55;;;;;;;3.30;2.15;;;26.00;48.40;;;;;;5054048;28;20032;-70
2023/10/11 11:36:31;;;;;;;3.80;2.65;;;26.10;48.20;;;;;;5070869;28;20041;-70
2023/10/11 11:41:58;;;;;;;3.97;1.98;;;26.00;48.40;;;;;;5053675;28;20588;-69
2023/10/11 11:44:27;;;;;;;3.10;1.95;;;26.00;48.20;;;;;;5070438;28;20489;-69
2023/10/11 11:46:56;;;;;;;2.65;2.00;;;26.00;48.10;;;;;;5070523;28;20086;-69
2023/10/11 11:49:24;;;;;;;4.13;2.50;;;26.10;48.10;;;;;;5053904;28;20028;-70
2023/10/11 11:51:51;;;;;;;2.38;2.03;;;26.10;48.00;;;;;;5070078;28;20093;-69
2023/10/11 11:54:28;;;;;;;2.42;2.00;;;26.00;48.00;;;;;;5053774;28;20472;-70
2023/10/11 11:56:55;;;;;;;3.97;2.40;;;26.00;48.10;;;;;;5057296;28;20052;-71
2023/10/11 11:59:29;;;;;;;4.18;2.08;;;26.00;48.20;;;;;;5033089;28;20381;-70
2023/10/11 12:01:59;;;;;;;4.22;1.80;;;26.00;48.40;;;;;;5031622;28;20036;-71
2023/10/11 12:04:29;;;;;;;3.70;2.05;;;26.00;48.30;;;;;;5034293;28;20067;-70
2023/10/11 12:07:13;;;;;;;2.75;1.88;;;26.00;48.30;;;;;;5033044;28;20072;-69
2023/10/11 12:09:39;;;;;;;2.65;1.75;;;26.10;47.80;;;;;;5032802;28;20110;-73
2023/10/11 12:12:06;;;;;;;2.17;1.98;;;25.90;47.10;;;;;;5031069;28;20488;-72
2023/10/11 12:14:39;;;;;;;6.60;2.35;;;26.00;47.30;;;;;;5032673;28;20042;-71
2023/10/11 12:17:09;;;;;;;3.33;2.17;;;25.90;46.50;;;;;;5048110;28;20029;-73
2023/10/11 12:19:36;;;;;;;2.17;1.70;;;25.90;46.10;;;;;;5035320;28;20446;-72
2023/10/11 12:22:03;;;;;;;2.08;1.77;;;26.00;46.10;;;;;;5050003;28;20025;-74
2023/10/11 12:24:30;;;;;;;2.80;2.05;;;25.90;45.30;;;;;;5051299;28;20813;-72
2023/10/11 12:26:59;;;;;;;2.65;2.03;;;25.80;45.00;;;;;;5034454;28;20033;-73
2023/10/11 12:29:26;;;;;;;3.90;1.92;;;25.90;44.80;;;;;;5052728;28;20025;-73
2023/10/11 12:31:55;;;;;;;3.28;2.28;;;25.90;44.70;;;;;;5050944;28;20093;-72
2023/10/11 12:34:24;;;;;;;4.45;1.95;;;25.90;44.40;;;;;;5051339;28;20116;-73
2023/10/11 12:36:53;;;;;;;3.35;1.90;;;25.80;44.20;;;;;;5051042;28;20033;-73
2023/10/11 12:39:29;;;;;;;3.92;2.00;;;25.90;44.20;;;;;;5052414;28;20649;-75
2023/10/11 12:41:59;;;;;;;1.90;1.70;;;25.90;44.10;;;;;;5052105;28;20534;-74
2023/10/11 12:44:28;;;;;;;6.97;2.10;;;25.90;44.40;;;;;;5052355;28;20025;-75
2023/10/11 12:46:58;;;;;;;3.50;1.88;;;25.80;44.70;;;;;;5052104;28;20052;-75
2023/10/11 12:49:27;;;;;;;10.27;2.35;;;25.90;44.70;;;;;;5049012;28;20021;-73
2023/10/11 12:51:54;;;;;;;3.22;1.70;;;26.00;45.20;;;;;;5051237;28;20033;-73
2023/10/11 12:54:20;;;;;;;1.88;1.70;;;26.00;45.60;;;;;;5050758;28;20503;-73
2023/10/11 12:56:47;;;;;;;2.88;1.83;;;25.90;45.60;;;;;;5051883;28;20036;-73
2023/10/11 12:59:13;;;;;;;4.43;1.45;;;25.90;46.10;;;;;;5051969;28;20107;-71
2023/10/11 13:01:41;;;;;;;5.50;2.22;;;26.00;46.90;;;;;;5051049;28;20059;-71
2023/10/11 13:04:10;;;;;;;6.20;1.92;;;25.80;48.40;;;;;;5033919;28;20061;-70
2023/10/11 13:06:37;;;;;;;3.90;2.40;;;25.80;49.40;;;;;;5051596;28;20211;-72
2023/10/11 13:09:14;;;;;;;3.55;2.35;;;25.90;48.80;;;;;;5051637;28;20033;-71
2023/10/11 13:11:44;;;;;;;2.58;2.17;;;25.70;48.80;;;;;;5051454;28;20360;-72
2023/10/11 13:14:18;;;;;;;2.50;1.83;;;25.90;48.40;;;;;;5052720;28;20033;-73
2023/10/11 13:16:51;;;;;;;5.20;2.08;;;25.80;48.30;;;;;;5071156;28;20052;-71
2023/10/11 13:19:18;;;;;;;8.13;2.00;;;25.80;48.30;;;;;;5070156;28;20040;-71
2023/10/11 13:21:46;;;;;;;5.43;2.33;;;25.80;48.30;;;;;;5071834;28;20377;-71
2023/10/11 13:24:12;;;;;;;5.05;2.25;;;25.90;48.30;;;;;;5071329;28;20381;-72
2023/10/11 13:26:43;;;;;;;3.30;2.30;;;25.80;48.30;;;;;;5071595;28;20095;-72
2023/10/11 13:29:16;;;;;;;3.67;1.75;;;25.90;48.30;;;;;;5071543;28;20369;-70
2023/10/11 13:31:47;;;;;;;2.58;1.80;;;26.00;48.70;;;;;;5071592;28;20040;-70
2023/10/11 13:34:16;;;;;;;2.40;1.60;;;25.80;48.20;;;;;;5070407;28;20090;-71
2023/10/11 13:36:43;;;;;;;3.38;1.73;;;25.80;48.10;;;;;;5071511;28;20072;-70
2023/10/11 13:39:30;;;;;;;5.07;1.88;;;25.80;48.10;;;;;;5071303;28;20044;-70
2023/10/11 13:41:58;;;;;;;2.88;1.88;;;25.90;48.10;;;;;;5071244;28;20029;-71
2023/10/11 13:44:25;;;;;;;5.07;1.80;;;26.00;48.50;;;;;;5071158;28;20105;-70
2023/10/11 13:46:57;;;;;;;9.10;2.60;;;25.90;48.00;;;;;;5022755;28;20049;-70